createdAt,value
2019-04-25T00:03:48.000Z,23.95
2019-04-25T00:23:48.000Z,23.88
2019-04-25T00:33:48.000Z,23.84
2019-04-25T00:43:48.000Z,23.83
2019-04-25T00:53:48.000Z,23.79
2019-04-25T01:03:48.000Z,23.71
2019-04-25T01:13:48.000Z,23.69
2019-04-25T01:23:48.000Z,23.65
2019-04-25T01:33:48.000Z,23.6
2019-04-25T01:43:48.000Z,23.55
2019-04-25T01:53:50.000Z,23.52
2019-04-25T02:03:48.000Z,23.5
2019-04-25T02:13:52.000Z,23.47
2019-04-25T02:33:48.000Z,23.39
2019-04-25T02:53:48.000Z,23.33
2019-04-25T03:03:48.000Z,23.29
2019-04-25T03:13:48.000Z,23.28
2019-04-25T03:23:48.000Z,23.23
2019-04-25T03:33:48.000Z,23.19
2019-04-25T03:43:49.000Z,23.16
2019-04-25T03:53:48.000Z,23.14
2019-04-25T04:03:48.000Z,23.1
2019-04-25T04:23:48.000Z,23.05
2019-04-25T04:33:48.000Z,23.06
2019-04-25T04:43:48.000Z,23.04
2019-04-25T04:53:48.000Z,23.01
2019-04-25T05:03:48.000Z,23.01
2019-04-25T05:13:49.000Z,22.97
2019-04-25T05:23:48.000Z,22.96
2019-04-25T05:33:48.000Z,23.03
2019-04-25T05:43:48.000Z,23.12
2019-04-25T06:03:49.000Z,23.21
2019-04-25T06:13:48.000Z,23.22
2019-04-25T06:23:48.000Z,23.2
2019-04-25T06:33:48.000Z,23.18
2019-04-25T06:43:48.000Z,23.22
2019-04-25T06:53:49.000Z,23.25
2019-04-25T07:03:49.000Z,23.3
2019-04-25T07:13:49.000Z,23.32
2019-04-25T07:23:49.000Z,23.34
2019-04-25T07:33:52.000Z,23.43
2019-04-25T07:43:49.000Z,23.39
2019-04-25T07:53:49.000Z,23.47
2019-04-25T08:03:49.000Z,23.48
2019-04-25T08:23:49.000Z,23.53
2019-04-25T08:33:49.000Z,23.6
2019-04-25T08:43:49.000Z,23.56
2019-04-25T08:53:49.000Z,23.54
2019-04-25T09:03:49.000Z,23.61
2019-04-25T09:13:49.000Z,23.77
2019-04-25T09:33:52.000Z,23.78
2019-04-25T09:43:51.000Z,23.7
2019-04-25T09:53:50.000Z,23.76
2019-04-25T10:03:51.000Z,23.76
2019-04-25T10:13:49.000Z,23.78
2019-04-25T10:23:49.000Z,23.78
2019-04-25T10:53:49.000Z,23.7
2019-04-25T11:03:49.000Z,23.73
2019-04-25T11:13:49.000Z,23.87
2019-04-25T11:23:49.000Z,23.96
2019-04-25T11:33:49.000Z,24.05
2019-04-25T11:43:49.000Z,24.11
2019-04-25T11:53:49.000Z,24.13
2019-04-25T12:03:49.000Z,24.11
2019-04-25T12:13:49.000Z,24.1
2019-04-25T12:23:49.000Z,24.09
2019-04-25T12:33:49.000Z,24.08
2019-04-25T12:43:49.000Z,24.08
2019-04-25T12:53:49.000Z,24.1
2019-04-25T13:03:49.000Z,24.14
2019-04-25T13:13:49.000Z,24.16
2019-04-25T13:23:49.000Z,24.19
2019-04-25T13:33:49.000Z,24.2
2019-04-25T13:43:49.000Z,24.21
2019-04-25T13:53:49.000Z,24.23
2019-04-25T14:03:49.000Z,24.25
2019-04-25T14:13:50.000Z,24.27
2019-04-25T14:23:49.000Z,24.28
2019-04-25T14:33:49.000Z,24.3
2019-04-25T14:43:49.000Z,24.31
2019-04-25T14:53:49.000Z,24.31
2019-04-25T15:03:49.000Z,24.32
2019-04-25T15:13:50.000Z,24.33
2019-04-25T15:23:50.000Z,24.33
2019-04-25T15:33:50.000Z,24.33
2019-04-25T15:43:50.000Z,24.34
2019-04-25T15:53:50.000Z,24.3
2019-04-25T16:03:50.000Z,24.32
2019-04-25T16:13:50.000Z,24.33
2019-04-25T16:23:53.000Z,24.38
2019-04-25T16:33:50.000Z,24.43
2019-04-25T16:43:50.000Z,24.51
2019-04-25T16:53:50.000Z,24.53
2019-04-25T17:03:50.000Z,24.49
2019-04-25T17:13:50.000Z,24.47
2019-04-25T17:23:50.000Z,24.43
2019-04-25T17:33:50.000Z,24.46
2019-04-25T17:43:50.000Z,24.43
2019-04-25T17:53:50.000Z,24.38
2019-04-25T18:03:50.000Z,24.47
2019-04-25T18:13:50.000Z,24.46
2019-04-25T18:23:52.000Z,24.38
2019-04-25T18:33:50.000Z,24.37
2019-04-25T18:43:50.000Z,24.33
2019-04-25T18:53:53.000Z,24.3
2019-04-25T19:03:51.000Z,24.28
2019-04-25T19:13:53.000Z,24.23
2019-04-25T19:23:50.000Z,24.36
2019-04-25T19:33:53.000Z,24.3
2019-04-25T19:43:50.000Z,24.24
2019-04-25T19:53:53.000Z,24.27
2019-04-25T20:03:50.000Z,24.28
2019-04-25T20:13:50.000Z,24.33
2019-04-25T20:23:50.000Z,24.32
2019-04-25T20:33:50.000Z,24.29
2019-04-25T20:43:50.000Z,24.37
2019-04-25T21:03:50.000Z,24.31
2019-04-25T21:23:51.000Z,24.21
2019-04-25T21:33:50.000Z,24.19
2019-04-25T21:43:50.000Z,24.14
2019-04-25T21:53:50.000Z,24.07
2019-04-25T22:03:50.000Z,24.05
2019-04-25T22:13:50.000Z,24
2019-04-25T22:23:50.000Z,23.97
2019-04-25T22:33:50.000Z,23.93
2019-04-25T22:43:50.000Z,23.86
2019-04-25T22:53:50.000Z,23.83
2019-04-25T23:03:50.000Z,23.8
2019-04-25T23:13:50.000Z,23.75
2019-04-25T23:23:52.000Z,23.71
2019-04-25T23:33:51.000Z,23.68
2019-04-25T23:43:51.000Z,23.66
2019-04-25T23:53:51.000Z,23.63
